sensor_id;sensor_type;location;lat;lon;timestamp;P1;durP1;ratioP1;P2;durP2;ratioP2
44706;SDS011;30433;45.596;8.408;2024-03-02T00:01:24;10.10;;;3.67;;
44706;SDS011;30433;45.596;8.408;2024-03-02T00:07:27;6.30;;;2.70;;
44706;SDS011;30433;45.596;8.408;2024-03-02T00:13:30;4.50;;;1.58;;
44706;SDS011;30433;45.596;8.408;2024-03-02T00:19:32;1.23;;;0.70;;
44706;SDS011;30433;45.596;8.408;2024-03-02T00:25:39;1.90;;;0.70;;
44706;SDS011;30433;45.596;8.408;2024-03-02T00:31:42;1.58;;;0.52;;
44706;SDS011;30433;45.596;8.408;2024-03-02T00:37:45;1.20;;;0.70;;
44706;SDS011;30433;45.596;8.408;2024-03-02T00:43:54;0.80;;;0.57;;
44706;SDS011;30433;45.596;8.408;2024-03-02T00:49:59;2.22;;;0.73;;
44706;SDS011;30433;45.596;8.408;2024-03-02T00:56:01;2.20;;;0.40;;
44706;SDS011;30433;45.596;8.408;2024-03-02T01:02:05;2.28;;;0.50;;
44706;SDS011;30433;45.596;8.408;2024-03-02T01:08:07;2.05;;;0.63;;
44706;SDS011;30433;45.596;8.408;2024-03-02T01:14:09;2.38;;;0.60;;
44706;SDS011;30433;45.596;8.408;2024-03-02T01:20:13;1.10;;;0.60;;
44706;SDS011;30433;45.596;8.408;2024-03-02T01:26:15;1.95;;;0.70;;
44706;SDS011;30433;45.596;8.408;2024-03-02T01:32:17;1.15;;;0.50;;
44706;SDS011;30433;45.596;8.408;2024-03-02T01:38:20;1.77;;;0.82;;
44706;SDS011;30433;45.596;8.408;2024-03-02T01:50:25;1.00;;;0.60;;
44706;SDS011;30433;45.596;8.408;2024-03-02T01:56:29;1.30;;;0.65;;
44706;SDS011;30433;45.596;8.408;2024-03-02T02:02:32;1.45;;;0.90;;
44706;SDS011;30433;45.596;8.408;2024-03-02T02:08:34;0.50;;;0.30;;
44706;SDS011;30433;45.596;8.408;2024-03-02T02:14:39;1.23;;;0.50;;
44706;SDS011;30433;45.596;8.408;2024-03-02T02:20:48;1.40;;;0.80;;
44706;SDS011;30433;45.596;8.408;2024-03-02T02:26:52;1.35;;;0.40;;
44706;SDS011;30433;45.596;8.408;2024-03-02T02:38:56;0.93;;;0.47;;
44706;SDS011;30433;45.596;8.408;2024-03-02T02:45:00;0.70;;;0.30;;
44706;SDS011;30433;45.596;8.408;2024-03-02T02:51:02;1.35;;;0.30;;
44706;SDS011;30433;45.596;8.408;2024-03-02T02:57:05;0.77;;;0.30;;
44706;SDS011;30433;45.596;8.408;2024-03-02T03:03:08;0.60;;;0.40;;
44706;SDS011;30433;45.596;8.408;2024-03-02T03:09:10;2.75;;;0.50;;
44706;SDS011;30433;45.596;8.408;2024-03-02T03:15:12;1.75;;;0.30;;
44706;SDS011;30433;45.596;8.408;2024-03-02T03:21:17;3.25;;;0.60;;
44706;SDS011;30433;45.596;8.408;2024-03-02T03:33:21;0.73;;;0.45;;
44706;SDS011;30433;45.596;8.408;2024-03-02T03:39:25;0.45;;;0.20;;
44706;SDS011;30433;45.596;8.408;2024-03-02T03:45:28;0.30;;;0.20;;
44706;SDS011;30433;45.596;8.408;2024-03-02T03:51:30;1.42;;;0.40;;
44706;SDS011;30433;45.596;8.408;2024-03-02T03:57:34;1.30;;;0.40;;
44706;SDS011;30433;45.596;8.408;2024-03-02T04:09:39;0.70;;;0.25;;
44706;SDS011;30433;45.596;8.408;2024-03-02T04:15:42;0.68;;;0.20;;
44706;SDS011;30433;45.596;8.408;2024-03-02T04:21:44;2.15;;;0.40;;
44706;SDS011;30433;45.596;8.408;2024-03-02T04:27:46;1.05;;;0.43;;
44706;SDS011;30433;45.596;8.408;2024-03-02T04:33:50;1.45;;;0.50;;
44706;SDS011;30433;45.596;8.408;2024-03-02T04:45:54;1.95;;;0.50;;
44706;SDS011;30433;45.596;8.408;2024-03-02T04:51:57;0.95;;;0.30;;
44706;SDS011;30433;45.596;8.408;2024-03-02T04:57:59;0.85;;;0.38;;
44706;SDS011;30433;45.596;8.408;2024-03-02T05:04:01;1.75;;;0.50;;
44706;SDS011;30433;45.596;8.408;2024-03-02T05:10:05;0.88;;;0.30;;
44706;SDS011;30433;45.596;8.408;2024-03-02T05:16:08;2.08;;;0.73;;
44706;SDS011;30433;45.596;8.408;2024-03-02T05:22:10;0.38;;;0.20;;
44706;SDS011;30433;45.596;8.408;2024-03-02T05:28:13;1.00;;;0.30;;
44706;SDS011;30433;45.596;8.408;2024-03-02T05:34:15;0.32;;;0.30;;
44706;SDS011;30433;45.596;8.408;2024-03-02T05:40:18;0.85;;;0.40;;
44706;SDS011;30433;45.596;8.408;2024-03-02T05:46:22;0.55;;;0.30;;
44706;SDS011;30433;45.596;8.408;2024-03-02T05:52:24;0.73;;;0.20;;
44706;SDS011;30433;45.596;8.408;2024-03-02T05:58:26;1.65;;;0.20;;
44706;SDS011;30433;45.596;8.408;2024-03-02T06:04:44;0.70;;;0.30;;
44706;SDS011;30433;45.596;8.408;2024-03-02T06:16:48;0.98;;;0.30;;
44706;SDS011;30433;45.596;8.408;2024-03-02T06:22:51;1.35;;;0.55;;
44706;SDS011;30433;45.596;8.408;2024-03-02T06:34:55;3.25;;;1.42;;
44706;SDS011;30433;45.596;8.408;2024-03-02T06:40:59;0.50;;;0.30;;
44706;SDS011;30433;45.596;8.408;2024-03-02T06:53:03;1.45;;;0.80;;
44706;SDS011;30433;45.596;8.408;2024-03-02T06:59:07;1.52;;;0.88;;
44706;SDS011;30433;45.596;8.408;2024-03-02T07:05:09;2.85;;;0.88;;
44706;SDS011;30433;45.596;8.408;2024-03-02T07:11:11;1.70;;;0.80;;
44706;SDS011;30433;45.596;8.408;2024-03-02T07:17:15;2.38;;;0.80;;
44706;SDS011;30433;45.596;8.408;2024-03-02T07:29:20;1.15;;;0.57;;
44706;SDS011;30433;45.596;8.408;2024-03-02T07:35:24;1.17;;;0.85;;
44706;SDS011;30433;45.596;8.408;2024-03-02T07:41:27;1.30;;;0.77;;
44706;SDS011;30433;45.596;8.408;2024-03-02T07:47:29;2.75;;;0.95;;
44706;SDS011;30433;45.596;8.408;2024-03-02T07:53:33;2.53;;;1.00;;
44706;SDS011;30433;45.596;8.408;2024-03-02T07:59:36;2.00;;;1.10;;
44706;SDS011;30433;45.596;8.408;2024-03-02T08:05:38;1.83;;;0.80;;
44706;SDS011;30433;45.596;8.408;2024-03-02T08:11:42;1.70;;;0.80;;
44706;SDS011;30433;45.596;8.408;2024-03-02T08:17:44;1.52;;;0.80;;
44706;SDS011;30433;45.596;8.408;2024-03-02T08:23:49;1.77;;;1.02;;
44706;SDS011;30433;45.596;8.408;2024-03-02T08:29:53;1.48;;;1.00;;
44706;SDS011;30433;45.596;8.408;2024-03-02T08:41:57;2.47;;;1.35;;
44706;SDS011;30433;45.596;8.408;2024-03-02T08:48:01;1.90;;;1.13;;
44706;SDS011;30433;45.596;8.408;2024-03-02T08:54:03;2.67;;;1.20;;
44706;SDS011;30433;45.596;8.408;2024-03-02T09:00:06;3.33;;;1.13;;
44706;SDS011;30433;45.596;8.408;2024-03-02T09:06:10;1.67;;;0.82;;
44706;SDS011;30433;45.596;8.408;2024-03-02T09:12:12;1.40;;;0.77;;
44706;SDS011;30433;45.596;8.408;2024-03-02T09:18:15;2.60;;;0.90;;
44706;SDS011;30433;45.596;8.408;2024-03-02T09:24:18;1.40;;;0.70;;
44706;SDS011;30433;45.596;8.408;2024-03-02T09:30:20;1.17;;;0.70;;
44706;SDS011;30433;45.596;8.408;2024-03-02T09:36:22;1.65;;;0.80;;
44706;SDS011;30433;45.596;8.408;2024-03-02T09:42:26;1.40;;;0.90;;
44706;SDS011;30433;45.596;8.408;2024-03-02T09:48:28;3.33;;;0.90;;
44706;SDS011;30433;45.596;8.408;2024-03-02T09:54:30;1.60;;;1.10;;
44706;SDS011;30433;45.596;8.408;2024-03-02T10:00:34;2.15;;;1.20;;
44706;SDS011;30433;45.596;8.408;2024-03-02T10:06:36;2.33;;;1.15;;
44706;SDS011;30433;45.596;8.408;2024-03-02T10:12:38;1.67;;;1.30;;
44706;SDS011;30433;45.596;8.408;2024-03-02T10:18:42;2.90;;;2.05;;
44706;SDS011;30433;45.596;8.408;2024-03-02T10:24:44;4.72;;;1.70;;
44706;SDS011;30433;45.596;8.408;2024-03-02T10:30:47;3.20;;;1.70;;
44706;SDS011;30433;45.596;8.408;2024-03-02T10:36:53;2.47;;;2.03;;
44706;SDS011;30433;45.596;8.408;2024-03-02T10:42:56;1.88;;;1.65;;
44706;SDS011;30433;45.596;8.408;2024-03-02T10:49:00;3.78;;;1.67;;
44706;SDS011;30433;45.596;8.408;2024-03-02T10:55:06;3.40;;;1.70;;
44706;SDS011;30433;45.596;8.408;2024-03-02T11:01:09;4.78;;;2.00;;
44706;SDS011;30433;45.596;8.408;2024-03-02T11:07:14;3.47;;;2.05;;
44706;SDS011;30433;45.596;8.408;2024-03-02T11:13:21;2.70;;;1.73;;
44706;SDS011;30433;45.596;8.408;2024-03-02T11:19:26;4.03;;;2.20;;
44706;SDS011;30433;45.596;8.408;2024-03-02T11:25:31;2.83;;;2.53;;
44706;SDS011;30433;45.596;8.408;2024-03-02T11:38:01;4.43;;;3.20;;
44706;SDS011;30433;45.596;8.408;2024-03-02T11:44:03;3.80;;;2.70;;
44706;SDS011;30433;45.596;8.408;2024-03-02T11:50:07;5.47;;;4.57;;
44706;SDS011;30433;45.596;8.408;2024-03-02T11:56:10;5.20;;;4.22;;
44706;SDS011;30433;45.596;8.408;2024-03-02T12:02:16;4.82;;;3.85;;
44706;SDS011;30433;45.596;8.408;2024-03-02T12:08:20;4.85;;;4.05;;
44706;SDS011;30433;45.596;8.408;2024-03-02T12:14:23;6.57;;;5.55;;
44706;SDS011;30433;45.596;8.408;2024-03-02T12:20:28;6.20;;;3.78;;
44706;SDS011;30433;45.596;8.408;2024-03-02T12:26:32;3.67;;;3.00;;
44706;SDS011;30433;45.596;8.408;2024-03-02T12:32:34;4.45;;;3.13;;
44706;SDS011;30433;45.596;8.408;2024-03-02T12:38:36;2.75;;;2.40;;
44706;SDS011;30433;45.596;8.408;2024-03-02T12:44:40;2.50;;;2.00;;
44706;SDS011;30433;45.596;8.408;2024-03-02T12:50:43;2.60;;;2.08;;
44706;SDS011;30433;45.596;8.408;2024-03-02T12:56:45;2.95;;;1.80;;
44706;SDS011;30433;45.596;8.408;2024-03-02T13:02:49;3.03;;;1.47;;
44706;SDS011;30433;45.596;8.408;2024-03-02T13:08:51;1.48;;;1.10;;
44706;SDS011;30433;45.596;8.408;2024-03-02T13:14:53;2.15;;;1.55;;
44706;SDS011;30433;45.596;8.408;2024-03-02T13:20:57;3.25;;;1.30;;
44706;SDS011;30433;45.596;8.408;2024-03-02T13:33:04;2.90;;;1.50;;
44706;SDS011;30433;45.596;8.408;2024-03-02T13:39:07;1.67;;;0.98;;
44706;SDS011;30433;45.596;8.408;2024-03-02T13:45:10;1.83;;;0.95;;
44706;SDS011;30433;45.596;8.408;2024-03-02T13:51:13;1.20;;;0.80;;
44706;SDS011;30433;45.596;8.408;2024-03-02T13:57:17;2.10;;;1.10;;
44706;SDS011;30433;45.596;8.408;2024-03-02T14:03:20;2.63;;;1.45;;
44706;SDS011;30433;45.596;8.408;2024-03-02T14:09:22;0.90;;;0.67;;
44706;SDS011;30433;45.596;8.408;2024-03-02T14:15:26;1.37;;;0.80;;
44706;SDS011;30433;45.596;8.408;2024-03-02T14:21:30;1.25;;;0.80;;
44706;SDS011;30433;45.596;8.408;2024-03-02T14:27:36;1.30;;;0.80;;
44706;SDS011;30433;45.596;8.408;2024-03-02T14:33:40;2.03;;;1.20;;
44706;SDS011;30433;45.596;8.408;2024-03-02T14:39:42;1.67;;;1.30;;
44706;SDS011;30433;45.596;8.408;2024-03-02T14:45:45;2.47;;;1.50;;
44706;SDS011;30433;45.596;8.408;2024-03-02T14:51:48;2.28;;;1.50;;
44706;SDS011;30433;45.596;8.408;2024-03-02T14:57:50;2.65;;;1.73;;
44706;SDS011;30433;45.596;8.408;2024-03-02T15:03:52;2.28;;;1.63;;
44706;SDS011;30433;45.596;8.408;2024-03-02T15:09:56;3.95;;;2.67;;
44706;SDS011;30433;45.596;8.408;2024-03-02T15:15:58;4.38;;;3.25;;
44706;SDS011;30433;45.596;8.408;2024-03-02T15:22:01;4.07;;;3.67;;
44706;SDS011;30433;45.596;8.408;2024-03-02T15:28:04;3.55;;;2.83;;
44706;SDS011;30433;45.596;8.408;2024-03-02T15:34:07;3.70;;;2.78;;
44706;SDS011;30433;45.596;8.408;2024-03-02T15:46:13;4.70;;;4.20;;
44706;SDS011;30433;45.596;8.408;2024-03-02T15:52:16;5.50;;;4.32;;
44706;SDS011;30433;45.596;8.408;2024-03-02T15:58:19;4.72;;;4.25;;
44706;SDS011;30433;45.596;8.408;2024-03-02T16:04:22;6.53;;;4.63;;
44706;SDS011;30433;45.596;8.408;2024-03-02T16:10:24;5.75;;;5.15;;
44706;SDS011;30433;45.596;8.408;2024-03-02T16:16:27;6.30;;;5.67;;
44706;SDS011;30433;45.596;8.408;2024-03-02T16:22:30;6.00;;;4.82;;
44706;SDS011;30433;45.596;8.408;2024-03-02T16:28:32;5.15;;;4.65;;
44706;SDS011;30433;45.596;8.408;2024-03-02T16:34:34;7.22;;;5.10;;
44706;SDS011;30433;45.596;8.408;2024-03-02T16:46:41;5.93;;;4.82;;
44706;SDS011;30433;45.596;8.408;2024-03-02T16:52:45;5.75;;;5.13;;
44706;SDS011;30433;45.596;8.408;2024-03-02T16:58:49;6.40;;;5.20;;
44706;SDS011;30433;45.596;8.408;2024-03-02T17:04:51;6.28;;;5.65;;
44706;SDS011;30433;45.596;8.408;2024-03-02T17:10:53;7.53;;;5.83;;
44706;SDS011;30433;45.596;8.408;2024-03-02T17:16:57;6.70;;;5.85;;
44706;SDS011;30433;45.596;8.408;2024-03-02T17:22:59;5.78;;;5.18;;
44706;SDS011;30433;45.596;8.408;2024-03-02T17:29:02;7.75;;;6.07;;
44706;SDS011;30433;45.596;8.408;2024-03-02T17:35:06;9.30;;;7.63;;
44706;SDS011;30433;45.596;8.408;2024-03-02T17:41:08;8.10;;;7.30;;
44706;SDS011;30433;45.596;8.408;2024-03-02T17:47:11;9.37;;;7.70;;
44706;SDS011;30433;45.596;8.408;2024-03-02T17:53:15;8.00;;;7.20;;
44706;SDS011;30433;45.596;8.408;2024-03-02T17:59:17;9.52;;;8.23;;
44706;SDS011;30433;45.596;8.408;2024-03-02T18:05:19;9.90;;;8.82;;
44706;SDS011;30433;45.596;8.408;2024-03-02T18:11:22;10.85;;;8.80;;
44706;SDS011;30433;45.596;8.408;2024-03-02T18:17:25;9.48;;;8.57;;
44706;SDS011;30433;45.596;8.408;2024-03-02T18:23:27;11.95;;;10.40;;
44706;SDS011;30433;45.596;8.408;2024-03-02T18:29:31;13.50;;;11.98;;
44706;SDS011;30433;45.596;8.408;2024-03-02T18:35:33;15.32;;;13.75;;
44706;SDS011;30433;45.596;8.408;2024-03-02T18:41:36;15.25;;;13.65;;
44706;SDS011;30433;45.596;8.408;2024-03-02T18:47:39;14.82;;;12.90;;
44706;SDS011;30433;45.596;8.408;2024-03-02T18:53:42;18.58;;;13.13;;
44706;SDS011;30433;45.596;8.408;2024-03-02T18:59:44;15.30;;;13.57;;
44706;SDS011;30433;45.596;8.408;2024-03-02T19:05:48;17.48;;;15.18;;
44706;SDS011;30433;45.596;8.408;2024-03-02T19:11:50;19.70;;;17.02;;
44706;SDS011;30433;45.596;8.408;2024-03-02T19:17:52;18.90;;;16.40;;
44706;SDS011;30433;45.596;8.408;2024-03-02T19:23:55;20.65;;;17.05;;
44706;SDS011;30433;45.596;8.408;2024-03-02T19:29:57;20.63;;;16.45;;
44706;SDS011;30433;45.596;8.408;2024-03-02T19:36:00;23.63;;;18.55;;
44706;SDS011;30433;45.596;8.408;2024-03-02T19:42:04;25.33;;;19.45;;
44706;SDS011;30433;45.596;8.408;2024-03-02T19:48:07;24.55;;;20.98;;
44706;SDS011;30433;45.596;8.408;2024-03-02T19:54:09;25.67;;;21.10;;
44706;SDS011;30433;45.596;8.408;2024-03-02T20:00:13;26.52;;;21.13;;
44706;SDS011;30433;45.596;8.408;2024-03-02T20:06:17;26.00;;;22.13;;
44706;SDS011;30433;45.596;8.408;2024-03-02T20:12:20;28.90;;;24.23;;
44706;SDS011;30433;45.596;8.408;2024-03-02T20:18:24;28.57;;;23.53;;
44706;SDS011;30433;45.596;8.408;2024-03-02T20:24:26;32.05;;;24.38;;
44706;SDS011;30433;45.596;8.408;2024-03-02T20:30:28;32.80;;;25.15;;
44706;SDS011;30433;45.596;8.408;2024-03-02T20:36:32;32.70;;;25.70;;
44706;SDS011;30433;45.596;8.408;2024-03-02T20:42:34;36.22;;;27.63;;
44706;SDS011;30433;45.596;8.408;2024-03-02T20:54:40;35.53;;;28.13;;
44706;SDS011;30433;45.596;8.408;2024-03-02T21:00:42;32.00;;;27.05;;
44706;SDS011;30433;45.596;8.408;2024-03-02T21:06:45;32.28;;;26.35;;
44706;SDS011;30433;45.596;8.408;2024-03-02T21:12:48;29.05;;;25.58;;
44706;SDS011;30433;45.596;8.408;2024-03-02T21:18:50;30.13;;;24.40;;
44706;SDS011;30433;45.596;8.408;2024-03-02T21:24:53;31.05;;;25.05;;
44706;SDS011;30433;45.596;8.408;2024-03-02T21:31:02;27.58;;;23.90;;
44706;SDS011;30433;45.596;8.408;2024-03-02T21:37:04;27.75;;;23.67;;
44706;SDS011;30433;45.596;8.408;2024-03-02T21:43:06;30.02;;;24.88;;
44706;SDS011;30433;45.596;8.408;2024-03-02T21:49:10;26.42;;;23.55;;
44706;SDS011;30433;45.596;8.408;2024-03-02T21:55:13;27.42;;;22.58;;
44706;SDS011;30433;45.596;8.408;2024-03-02T22:01:15;27.95;;;22.40;;
44706;SDS011;30433;45.596;8.408;2024-03-02T22:07:19;26.38;;;23.52;;
44706;SDS011;30433;45.596;8.408;2024-03-02T22:13:21;25.27;;;22.42;;
44706;SDS011;30433;45.596;8.408;2024-03-02T22:19:23;26.65;;;22.00;;
44706;SDS011;30433;45.596;8.408;2024-03-02T22:25:27;23.20;;;20.73;;
44706;SDS011;30433;45.596;8.408;2024-03-02T22:31:29;25.48;;;22.45;;
44706;SDS011;30433;45.596;8.408;2024-03-02T22:37:31;24.27;;;21.77;;
44706;SDS011;30433;45.596;8.408;2024-03-02T22:43:34;24.60;;;22.10;;
44706;SDS011;30433;45.596;8.408;2024-03-02T22:49:37;22.90;;;20.13;;
44706;SDS011;30433;45.596;8.408;2024-03-02T23:01:43;22.30;;;20.00;;
44706;SDS011;30433;45.596;8.408;2024-03-02T23:07:45;22.52;;;20.13;;
44706;SDS011;30433;45.596;8.408;2024-03-02T23:13:47;21.60;;;18.65;;
44706;SDS011;30433;45.596;8.408;2024-03-02T23:19:51;22.45;;;20.02;;
44706;SDS011;30433;45.596;8.408;2024-03-02T23:25:53;23.08;;;19.83;;
44706;SDS011;30433;45.596;8.408;2024-03-02T23:31:55;22.13;;;19.48;;
44706;SDS011;30433;45.596;8.408;2024-03-02T23:37:59;23.00;;;19.30;;
44706;SDS011;30433;45.596;8.408;2024-03-02T23:44:01;21.05;;;18.98;;
44706;SDS011;30433;45.596;8.408;2024-03-02T23:50:07;21.52;;;19.35;;
44706;SDS011;30433;45.596;8.408;2024-03-02T23:56:14;21.20;;;18.92;;
